sensor_id;sensor_type;location;lat;lon;timestamp;P1;durP1;ratioP1;P2;durP2;ratioP2
81894;SDS011;71358;45.642;13.758;2023-08-12T00:01:40;4.50;;;3.85;;
81894;SDS011;71358;45.642;13.758;2023-08-12T00:04:25;4.53;;;3.95;;
81894;SDS011;71358;45.642;13.758;2023-08-12T00:07:09;3.97;;;3.53;;
81894;SDS011;71358;45.642;13.758;2023-08-12T00:09:54;4.15;;;3.85;;
81894;SDS011;71358;45.642;13.758;2023-08-12T00:12:39;4.22;;;3.83;;
81894;SDS011;71358;45.642;13.758;2023-08-12T00:15:24;4.00;;;3.70;;
81894;SDS011;71358;45.642;13.758;2023-08-12T00:18:09;4.30;;;4.00;;
81894;SDS011;71358;45.642;13.758;2023-08-12T00:20:53;4.68;;;4.07;;
81894;SDS011;71358;45.642;13.758;2023-08-12T00:23:39;4.70;;;4.25;;
81894;SDS011;71358;45.642;13.758;2023-08-12T00:26:24;3.92;;;3.60;;
81894;SDS011;71358;45.642;13.758;2023-08-12T00:29:09;3.97;;;3.58;;
81894;SDS011;71358;45.642;13.758;2023-08-12T00:31:53;5.72;;;4.03;;
81894;SDS011;71358;45.642;13.758;2023-08-12T00:34:39;3.58;;;3.28;;
81894;SDS011;71358;45.642;13.758;2023-08-12T00:37:23;3.80;;;3.50;;
81894;SDS011;71358;45.642;13.758;2023-08-12T00:40:08;3.95;;;3.63;;
81894;SDS011;71358;45.642;13.758;2023-08-12T00:42:53;4.15;;;3.75;;
81894;SDS011;71358;45.642;13.758;2023-08-12T00:45:38;4.38;;;3.63;;
81894;SDS011;71358;45.642;13.758;2023-08-12T00:48:22;4.10;;;3.63;;
81894;SDS011;71358;45.642;13.758;2023-08-12T00:51:07;3.90;;;3.50;;
81894;SDS011;71358;45.642;13.758;2023-08-12T00:53:52;4.20;;;3.90;;
81894;SDS011;71358;45.642;13.758;2023-08-12T00:56:38;4.22;;;3.83;;
81894;SDS011;71358;45.642;13.758;2023-08-12T00:59:22;4.75;;;3.75;;
81894;SDS011;71358;45.642;13.758;2023-08-12T01:02:08;3.95;;;3.53;;
81894;SDS011;71358;45.642;13.758;2023-08-12T01:04:53;4.97;;;3.92;;
81894;SDS011;71358;45.642;13.758;2023-08-12T01:07:37;3.92;;;3.50;;
81894;SDS011;71358;45.642;13.758;2023-08-12T01:10:23;4.40;;;4.00;;
81894;SDS011;71358;45.642;13.758;2023-08-12T01:13:16;5.10;;;3.78;;
81894;SDS011;71358;45.642;13.758;2023-08-12T01:16:23;3.55;;;3.30;;
81894;SDS011;71358;45.642;13.758;2023-08-12T01:19:29;3.97;;;3.45;;
81894;SDS011;71358;45.642;13.758;2023-08-12T01:22:18;3.60;;;3.35;;
81894;SDS011;71358;45.642;13.758;2023-08-12T01:25:07;3.75;;;3.35;;
81894;SDS011;71358;45.642;13.758;2023-08-12T01:27:52;3.97;;;3.10;;
81894;SDS011;71358;45.642;13.758;2023-08-12T01:30:52;3.60;;;3.30;;
81894;SDS011;71358;45.642;13.758;2023-08-12T01:33:45;4.97;;;3.97;;
81894;SDS011;71358;45.642;13.758;2023-08-12T01:36:35;3.65;;;3.35;;
81894;SDS011;71358;45.642;13.758;2023-08-12T01:39:21;5.68;;;3.67;;
81894;SDS011;71358;45.642;13.758;2023-08-12T01:42:07;4.97;;;3.63;;
81894;SDS011;71358;45.642;13.758;2023-08-12T01:44:52;4.25;;;3.85;;
81894;SDS011;71358;45.642;13.758;2023-08-12T01:47:37;3.55;;;3.25;;
81894;SDS011;71358;45.642;13.758;2023-08-12T01:50:21;3.75;;;3.40;;
81894;SDS011;71358;45.642;13.758;2023-08-12T01:53:06;4.07;;;3.78;;
81894;SDS011;71358;45.642;13.758;2023-08-12T01:55:51;3.92;;;3.60;;
81894;SDS011;71358;45.642;13.758;2023-08-12T01:58:36;3.72;;;3.42;;
81894;SDS011;71358;45.642;13.758;2023-08-12T02:01:21;5.55;;;3.15;;
81894;SDS011;71358;45.642;13.758;2023-08-12T02:04:05;3.60;;;3.30;;
81894;SDS011;71358;45.642;13.758;2023-08-12T02:06:50;4.10;;;3.78;;
81894;SDS011;71358;45.642;13.758;2023-08-12T02:09:34;4.57;;;3.95;;
81894;SDS011;71358;45.642;13.758;2023-08-12T02:12:19;3.72;;;3.38;;
81894;SDS011;71358;45.642;13.758;2023-08-12T02:15:04;4.13;;;3.72;;
81894;SDS011;71358;45.642;13.758;2023-08-12T02:17:48;5.03;;;4.05;;
81894;SDS011;71358;45.642;13.758;2023-08-12T02:20:33;4.70;;;3.95;;
81894;SDS011;71358;45.642;13.758;2023-08-12T02:23:19;4.18;;;3.67;;
81894;SDS011;71358;45.642;13.758;2023-08-12T02:26:03;4.32;;;3.92;;
81894;SDS011;71358;45.642;13.758;2023-08-12T02:28:48;4.68;;;3.92;;
81894;SDS011;71358;45.642;13.758;2023-08-12T02:31:33;3.45;;;3.15;;
81894;SDS011;71358;45.642;13.758;2023-08-12T02:34:18;5.25;;;3.58;;
81894;SDS011;71358;45.642;13.758;2023-08-12T02:37:03;4.38;;;3.30;;
81894;SDS011;71358;45.642;13.758;2023-08-12T02:39:47;5.72;;;3.75;;
81894;SDS011;71358;45.642;13.758;2023-08-12T02:42:32;4.32;;;3.47;;
81894;SDS011;71358;45.642;13.758;2023-08-12T02:45:16;3.88;;;3.58;;
81894;SDS011;71358;45.642;13.758;2023-08-12T02:48:01;3.95;;;3.60;;
81894;SDS011;71358;45.642;13.758;2023-08-12T02:50:45;3.50;;;3.20;;
81894;SDS011;71358;45.642;13.758;2023-08-12T02:53:30;3.72;;;3.33;;
81894;SDS011;71358;45.642;13.758;2023-08-12T02:56:15;6.82;;;3.80;;
81894;SDS011;71358;45.642;13.758;2023-08-12T02:58:59;4.18;;;3.20;;
81894;SDS011;71358;45.642;13.758;2023-08-12T03:01:44;4.00;;;3.45;;
81894;SDS011;71358;45.642;13.758;2023-08-12T03:04:28;5.38;;;4.22;;
81894;SDS011;71358;45.642;13.758;2023-08-12T03:07:13;3.63;;;3.30;;
81894;SDS011;71358;45.642;13.758;2023-08-12T03:09:58;5.10;;;3.38;;
81894;SDS011;71358;45.642;13.758;2023-08-12T03:12:42;3.40;;;3.10;;
81894;SDS011;71358;45.642;13.758;2023-08-12T03:15:27;4.10;;;3.70;;
81894;SDS011;71358;45.642;13.758;2023-08-12T03:18:14;3.80;;;3.47;;
81894;SDS011;71358;45.642;13.758;2023-08-12T03:20:58;3.97;;;3.42;;
81894;SDS011;71358;45.642;13.758;2023-08-12T03:23:44;4.72;;;3.88;;
81894;SDS011;71358;45.642;13.758;2023-08-12T03:26:29;4.93;;;3.50;;
81894;SDS011;71358;45.642;13.758;2023-08-12T03:29:15;5.13;;;4.63;;
81894;SDS011;71358;45.642;13.758;2023-08-12T03:32:00;4.25;;;2.97;;
81894;SDS011;71358;45.642;13.758;2023-08-12T03:34:45;5.57;;;3.45;;
81894;SDS011;71358;45.642;13.758;2023-08-12T03:37:30;4.07;;;3.67;;
81894;SDS011;71358;45.642;13.758;2023-08-12T03:40:14;4.22;;;3.08;;
81894;SDS011;71358;45.642;13.758;2023-08-12T03:42:59;3.47;;;3.17;;
81894;SDS011;71358;45.642;13.758;2023-08-12T03:45:44;4.32;;;3.03;;
81894;SDS011;71358;45.642;13.758;2023-08-12T03:48:31;2.92;;;2.72;;
81894;SDS011;71358;45.642;13.758;2023-08-12T03:51:17;3.50;;;3.17;;
81894;SDS011;71358;45.642;13.758;2023-08-12T03:54:02;4.03;;;3.72;;
81894;SDS011;71358;45.642;13.758;2023-08-12T03:56:47;6.13;;;3.50;;
81894;SDS011;71358;45.642;13.758;2023-08-12T03:59:32;3.67;;;3.38;;
81894;SDS011;71358;45.642;13.758;2023-08-12T04:02:17;4.63;;;3.00;;
81894;SDS011;71358;45.642;13.758;2023-08-12T04:05:02;3.70;;;3.40;;
81894;SDS011;71358;45.642;13.758;2023-08-12T04:07:46;4.07;;;3.20;;
81894;SDS011;71358;45.642;13.758;2023-08-12T04:10:32;5.00;;;3.58;;
81894;SDS011;71358;45.642;13.758;2023-08-12T04:13:16;3.53;;;3.22;;
81894;SDS011;71358;45.642;13.758;2023-08-12T04:16:01;3.63;;;3.33;;
81894;SDS011;71358;45.642;13.758;2023-08-12T04:18:45;3.75;;;3.45;;
81894;SDS011;71358;45.642;13.758;2023-08-12T04:21:30;4.85;;;3.40;;
81894;SDS011;71358;45.642;13.758;2023-08-12T04:24:15;3.60;;;3.30;;
81894;SDS011;71358;45.642;13.758;2023-08-12T04:26:59;3.78;;;3.22;;
81894;SDS011;71358;45.642;13.758;2023-08-12T04:29:45;3.55;;;3.30;;
81894;SDS011;71358;45.642;13.758;2023-08-12T04:32:30;3.53;;;3.13;;
81894;SDS011;71358;45.642;13.758;2023-08-12T04:35:15;5.00;;;3.53;;
81894;SDS011;71358;45.642;13.758;2023-08-12T04:38:00;4.50;;;3.40;;
81894;SDS011;71358;45.642;13.758;2023-08-12T04:40:45;3.70;;;3.40;;
81894;SDS011;71358;45.642;13.758;2023-08-12T04:43:30;3.55;;;3.25;;
81894;SDS011;71358;45.642;13.758;2023-08-12T04:46:16;4.35;;;3.80;;
81894;SDS011;71358;45.642;13.758;2023-08-12T04:49:02;4.10;;;3.70;;
81894;SDS011;71358;45.642;13.758;2023-08-12T04:51:46;3.95;;;3.60;;
81894;SDS011;71358;45.642;13.758;2023-08-12T04:54:31;5.30;;;3.72;;
81894;SDS011;71358;45.642;13.758;2023-08-12T04:57:15;3.60;;;3.25;;
81894;SDS011;71358;45.642;13.758;2023-08-12T05:00:00;4.20;;;3.67;;
81894;SDS011;71358;45.642;13.758;2023-08-12T05:02:45;4.00;;;3.70;;
81894;SDS011;71358;45.642;13.758;2023-08-12T05:05:30;4.07;;;3.78;;
81894;SDS011;71358;45.642;13.758;2023-08-12T05:08:15;4.25;;;3.70;;
81894;SDS011;71358;45.642;13.758;2023-08-12T05:11:00;3.58;;;3.28;;
81894;SDS011;71358;45.642;13.758;2023-08-12T05:13:44;5.88;;;3.17;;
81894;SDS011;71358;45.642;13.758;2023-08-12T05:16:29;3.88;;;3.33;;
81894;SDS011;71358;45.642;13.758;2023-08-12T05:19:14;3.80;;;3.50;;
81894;SDS011;71358;45.642;13.758;2023-08-12T05:21:59;4.05;;;3.75;;
81894;SDS011;71358;45.642;13.758;2023-08-12T05:24:44;4.18;;;3.75;;
81894;SDS011;71358;45.642;13.758;2023-08-12T05:27:29;4.10;;;3.72;;
81894;SDS011;71358;45.642;13.758;2023-08-12T05:30:13;3.80;;;3.50;;
81894;SDS011;71358;45.642;13.758;2023-08-12T05:32:57;4.32;;;3.53;;
81894;SDS011;71358;45.642;13.758;2023-08-12T05:35:42;4.63;;;3.67;;
81894;SDS011;71358;45.642;13.758;2023-08-12T05:38:27;4.43;;;4.03;;
81894;SDS011;71358;45.642;13.758;2023-08-12T05:41:11;3.75;;;3.45;;
81894;SDS011;71358;45.642;13.758;2023-08-12T05:43:56;3.78;;;3.30;;
81894;SDS011;71358;45.642;13.758;2023-08-12T05:46:40;3.67;;;3.28;;
81894;SDS011;71358;45.642;13.758;2023-08-12T05:49:25;4.40;;;3.72;;
81894;SDS011;71358;45.642;13.758;2023-08-12T05:52:09;5.32;;;4.07;;
81894;SDS011;71358;45.642;13.758;2023-08-12T05:54:54;4.45;;;4.05;;
81894;SDS011;71358;45.642;13.758;2023-08-12T05:57:39;4.38;;;3.30;;
81894;SDS011;71358;45.642;13.758;2023-08-12T06:00:23;4.20;;;3.80;;
81894;SDS011;71358;45.642;13.758;2023-08-12T06:03:08;5.47;;;3.95;;
81894;SDS011;71358;45.642;13.758;2023-08-12T06:05:52;4.60;;;3.83;;
81894;SDS011;71358;45.642;13.758;2023-08-12T06:08:37;3.80;;;3.50;;
81894;SDS011;71358;45.642;13.758;2023-08-12T06:11:21;4.63;;;3.67;;
81894;SDS011;71358;45.642;13.758;2023-08-12T06:14:06;3.63;;;3.33;;
81894;SDS011;71358;45.642;13.758;2023-08-12T06:16:50;5.10;;;3.53;;
81894;SDS011;71358;45.642;13.758;2023-08-12T06:19:35;3.95;;;3.58;;
81894;SDS011;71358;45.642;13.758;2023-08-12T06:22:19;5.32;;;3.90;;
81894;SDS011;71358;45.642;13.758;2023-08-12T06:25:04;3.95;;;3.65;;
81894;SDS011;71358;45.642;13.758;2023-08-12T06:27:49;4.40;;;3.97;;
81894;SDS011;71358;45.642;13.758;2023-08-12T06:30:33;4.07;;;3.78;;
81894;SDS011;71358;45.642;13.758;2023-08-12T06:33:18;4.45;;;4.05;;
81894;SDS011;71358;45.642;13.758;2023-08-12T06:36:02;5.05;;;4.03;;
81894;SDS011;71358;45.642;13.758;2023-08-12T06:38:47;4.30;;;3.92;;
81894;SDS011;71358;45.642;13.758;2023-08-12T06:41:32;4.15;;;3.85;;
81894;SDS011;71358;45.642;13.758;2023-08-12T06:44:16;4.40;;;4.00;;
81894;SDS011;71358;45.642;13.758;2023-08-12T06:47:01;4.63;;;4.07;;
81894;SDS011;71358;45.642;13.758;2023-08-12T06:49:46;3.92;;;3.63;;
81894;SDS011;71358;45.642;13.758;2023-08-12T06:52:30;5.07;;;3.30;;
81894;SDS011;71358;45.642;13.758;2023-08-12T06:55:15;4.85;;;4.38;;
81894;SDS011;71358;45.642;13.758;2023-08-12T06:57:59;4.40;;;4.00;;
81894;SDS011;71358;45.642;13.758;2023-08-12T07:00:44;3.63;;;3.42;;
81894;SDS011;71358;45.642;13.758;2023-08-12T07:03:29;4.20;;;3.80;;
81894;SDS011;71358;45.642;13.758;2023-08-12T07:06:13;4.03;;;3.67;;
81894;SDS011;71358;45.642;13.758;2023-08-12T07:08:59;4.25;;;3.80;;
81894;SDS011;71358;45.642;13.758;2023-08-12T07:11:43;4.30;;;3.90;;
81894;SDS011;71358;45.642;13.758;2023-08-12T07:14:28;4.40;;;4.00;;
81894;SDS011;71358;45.642;13.758;2023-08-12T07:17:12;4.63;;;3.53;;
81894;SDS011;71358;45.642;13.758;2023-08-12T07:19:57;4.50;;;4.10;;
81894;SDS011;71358;45.642;13.758;2023-08-12T07:22:41;4.22;;;3.83;;
81894;SDS011;71358;45.642;13.758;2023-08-12T07:25:26;6.35;;;4.55;;
81894;SDS011;71358;45.642;13.758;2023-08-12T07:28:11;4.32;;;3.78;;
81894;SDS011;71358;45.642;13.758;2023-08-12T07:30:55;5.10;;;3.88;;
81894;SDS011;71358;45.642;13.758;2023-08-12T07:33:40;4.95;;;4.03;;
81894;SDS011;71358;45.642;13.758;2023-08-12T07:36:24;4.30;;;4.00;;
81894;SDS011;71358;45.642;13.758;2023-08-12T07:39:09;4.28;;;3.88;;
81894;SDS011;71358;45.642;13.758;2023-08-12T07:41:54;5.05;;;3.90;;
81894;SDS011;71358;45.642;13.758;2023-08-12T07:44:38;4.22;;;3.60;;
81894;SDS011;71358;45.642;13.758;2023-08-12T07:47:23;4.28;;;3.85;;
81894;SDS011;71358;45.642;13.758;2023-08-12T07:50:08;3.78;;;3.47;;
81894;SDS011;71358;45.642;13.758;2023-08-12T07:52:52;5.22;;;3.70;;
81894;SDS011;71358;45.642;13.758;2023-08-12T07:55:37;4.18;;;3.88;;
81894;SDS011;71358;45.642;13.758;2023-08-12T07:58:22;4.50;;;4.07;;
81894;SDS011;71358;45.642;13.758;2023-08-12T08:01:07;4.35;;;3.95;;
81894;SDS011;71358;45.642;13.758;2023-08-12T08:03:52;5.53;;;4.10;;
81894;SDS011;71358;45.642;13.758;2023-08-12T08:06:37;5.05;;;3.72;;
81894;SDS011;71358;45.642;13.758;2023-08-12T08:09:22;5.65;;;3.90;;
81894;SDS011;71358;45.642;13.758;2023-08-12T08:12:07;7.88;;;4.70;;
81894;SDS011;71358;45.642;13.758;2023-08-12T08:14:52;7.03;;;4.72;;
81894;SDS011;71358;45.642;13.758;2023-08-12T08:17:37;5.93;;;4.18;;
81894;SDS011;71358;45.642;13.758;2023-08-12T08:20:22;5.35;;;4.35;;
81894;SDS011;71358;45.642;13.758;2023-08-12T08:23:07;5.50;;;4.13;;
81894;SDS011;71358;45.642;13.758;2023-08-12T08:25:51;6.68;;;4.35;;
81894;SDS011;71358;45.642;13.758;2023-08-12T08:28:37;4.43;;;4.00;;
81894;SDS011;71358;45.642;13.758;2023-08-12T08:31:21;4.85;;;4.47;;
81894;SDS011;71358;45.642;13.758;2023-08-12T08:34:06;7.38;;;4.68;;
81894;SDS011;71358;45.642;13.758;2023-08-12T08:36:51;5.13;;;4.57;;
81894;SDS011;71358;45.642;13.758;2023-08-12T08:39:36;4.35;;;3.95;;
81894;SDS011;71358;45.642;13.758;2023-08-12T08:42:20;5.07;;;4.60;;
81894;SDS011;71358;45.642;13.758;2023-08-12T08:45:11;5.28;;;4.55;;
81894;SDS011;71358;45.642;13.758;2023-08-12T08:47:56;4.93;;;4.47;;
81894;SDS011;71358;45.642;13.758;2023-08-12T08:50:41;5.30;;;4.75;;
81894;SDS011;71358;45.642;13.758;2023-08-12T08:53:29;4.30;;;4.00;;
81894;SDS011;71358;45.642;13.758;2023-08-12T08:56:14;5.25;;;4.65;;
81894;SDS011;71358;45.642;13.758;2023-08-12T08:58:59;4.80;;;4.40;;
81894;SDS011;71358;45.642;13.758;2023-08-12T09:01:45;7.32;;;4.50;;
81894;SDS011;71358;45.642;13.758;2023-08-12T09:04:30;5.18;;;4.68;;
81894;SDS011;71358;45.642;13.758;2023-08-12T09:07:16;4.97;;;4.57;;
81894;SDS011;71358;45.642;13.758;2023-08-12T09:10:02;7.75;;;6.47;;
81894;SDS011;71358;45.642;13.758;2023-08-12T09:12:47;12.63;;;7.57;;
81894;SDS011;71358;45.642;13.758;2023-08-12T09:15:32;8.48;;;7.32;;
81894;SDS011;71358;45.642;13.758;2023-08-12T09:18:17;8.48;;;6.75;;
81894;SDS011;71358;45.642;13.758;2023-08-12T09:21:02;9.23;;;7.78;;
81894;SDS011;71358;45.642;13.758;2023-08-12T09:23:46;9.98;;;8.07;;
81894;SDS011;71358;45.642;13.758;2023-08-12T09:26:31;11.88;;;8.50;;
81894;SDS011;71358;45.642;13.758;2023-08-12T09:29:15;14.80;;;9.65;;
81894;SDS011;71358;45.642;13.758;2023-08-12T09:32:09;10.85;;;9.25;;
81894;SDS011;71358;45.642;13.758;2023-08-12T09:34:54;10.50;;;6.88;;
81894;SDS011;71358;45.642;13.758;2023-08-12T09:37:39;8.27;;;7.45;;
81894;SDS011;71358;45.642;13.758;2023-08-12T09:40:25;10.60;;;6.43;;
81894;SDS011;71358;45.642;13.758;2023-08-12T09:43:09;9.25;;;5.65;;
81894;SDS011;71358;45.642;13.758;2023-08-12T09:45:55;5.78;;;5.20;;
81894;SDS011;71358;45.642;13.758;2023-08-12T09:48:44;6.68;;;5.00;;
81894;SDS011;71358;45.642;13.758;2023-08-12T09:51:33;6.40;;;4.97;;
81894;SDS011;71358;45.642;13.758;2023-08-12T09:54:19;7.68;;;5.25;;
81894;SDS011;71358;45.642;13.758;2023-08-12T09:57:05;5.10;;;4.60;;
81894;SDS011;71358;45.642;13.758;2023-08-12T09:59:52;5.78;;;5.00;;
81894;SDS011;71358;45.642;13.758;2023-08-12T10:02:38;6.88;;;4.90;;
81894;SDS011;71358;45.642;13.758;2023-08-12T10:05:25;5.18;;;4.68;;
81894;SDS011;71358;45.642;13.758;2023-08-12T10:08:14;8.57;;;5.03;;
81894;SDS011;71358;45.642;13.758;2023-08-12T10:10:59;5.00;;;4.53;;
81894;SDS011;71358;45.642;13.758;2023-08-12T10:13:44;5.22;;;3.90;;
81894;SDS011;71358;45.642;13.758;2023-08-12T10:16:30;5.97;;;4.53;;
81894;SDS011;71358;45.642;13.758;2023-08-12T10:19:16;5.70;;;4.60;;
81894;SDS011;71358;45.642;13.758;2023-08-12T10:22:02;5.47;;;4.50;;
81894;SDS011;71358;45.642;13.758;2023-08-12T10:24:47;5.55;;;4.20;;
81894;SDS011;71358;45.642;13.758;2023-08-12T10:27:33;4.93;;;4.35;;
81894;SDS011;71358;45.642;13.758;2023-08-12T10:30:20;4.53;;;4.03;;
81894;SDS011;71358;45.642;13.758;2023-08-12T10:33:04;4.55;;;4.15;;
81894;SDS011;71358;45.642;13.758;2023-08-12T10:35:50;4.30;;;3.88;;
81894;SDS011;71358;45.642;13.758;2023-08-12T10:38:34;4.75;;;4.32;;
81894;SDS011;71358;45.642;13.758;2023-08-12T10:41:20;7.82;;;4.85;;
81894;SDS011;71358;45.642;13.758;2023-08-12T10:44:05;6.50;;;4.57;;
81894;SDS011;71358;45.642;13.758;2023-08-12T10:46:50;5.50;;;5.10;;
81894;SDS011;71358;45.642;13.758;2023-08-12T10:49:43;4.85;;;4.45;;
81894;SDS011;71358;45.642;13.758;2023-08-12T10:52:32;5.05;;;4.65;;
81894;SDS011;71358;45.642;13.758;2023-08-12T10:58:02;4.55;;;4.15;;
81894;SDS011;71358;45.642;13.758;2023-08-12T11:00:56;4.57;;;4.18;;
81894;SDS011;71358;45.642;13.758;2023-08-12T11:03:42;4.75;;;4.35;;
81894;SDS011;71358;45.642;13.758;2023-08-12T11:06:27;4.45;;;4.05;;
81894;SDS011;71358;45.642;13.758;2023-08-12T11:09:12;4.30;;;3.92;;
81894;SDS011;71358;45.642;13.758;2023-08-12T11:11:56;4.38;;;4.07;;
81894;SDS011;71358;45.642;13.758;2023-08-12T11:14:47;4.68;;;4.28;;
81894;SDS011;71358;45.642;13.758;2023-08-12T11:17:36;5.10;;;4.57;;
81894;SDS011;71358;45.642;13.758;2023-08-12T11:20:23;4.75;;;4.20;;
81894;SDS011;71358;45.642;13.758;2023-08-12T11:23:08;6.43;;;4.63;;
81894;SDS011;71358;45.642;13.758;2023-08-12T11:25:53;4.85;;;4.20;;
81894;SDS011;71358;45.642;13.758;2023-08-12T11:28:38;5.22;;;4.55;;
81894;SDS011;71358;45.642;13.758;2023-08-12T11:31:22;4.75;;;4.35;;
81894;SDS011;71358;45.642;13.758;2023-08-12T11:34:07;6.90;;;5.28;;
81894;SDS011;71358;45.642;13.758;2023-08-12T11:36:51;5.22;;;4.75;;
81894;SDS011;71358;45.642;13.758;2023-08-12T11:39:36;5.60;;;4.50;;
81894;SDS011;71358;45.642;13.758;2023-08-12T11:42:22;4.97;;;4.57;;
81894;SDS011;71358;45.642;13.758;2023-08-12T11:45:06;4.55;;;4.15;;
81894;SDS011;71358;45.642;13.758;2023-08-12T11:47:52;5.20;;;4.28;;
81894;SDS011;71358;45.642;13.758;2023-08-12T11:50:37;4.70;;;4.22;;
81894;SDS011;71358;45.642;13.758;2023-08-12T11:53:22;4.90;;;4.03;;
81894;SDS011;71358;45.642;13.758;2023-08-12T11:56:06;5.28;;;4.78;;
81894;SDS011;71358;45.642;13.758;2023-08-12T11:58:51;4.75;;;4.40;;
81894;SDS011;71358;45.642;13.758;2023-08-12T12:01:39;5.72;;;4.25;;
81894;SDS011;71358;45.642;13.758;2023-08-12T12:04:24;4.30;;;3.97;;
81894;SDS011;71358;45.642;13.758;2023-08-12T12:07:23;4.97;;;4.57;;
81894;SDS011;71358;45.642;13.758;2023-08-12T12:10:12;5.57;;;4.38;;
81894;SDS011;71358;45.642;13.758;2023-08-12T12:12:58;5.32;;;4.80;;
81894;SDS011;71358;45.642;13.758;2023-08-12T12:15:43;4.53;;;4.13;;
81894;SDS011;71358;45.642;13.758;2023-08-12T12:18:28;5.55;;;4.53;;
81894;SDS011;71358;45.642;13.758;2023-08-12T12:21:19;4.22;;;3.90;;
81894;SDS011;71358;45.642;13.758;2023-08-12T12:24:05;4.07;;;3.78;;
81894;SDS011;71358;45.642;13.758;2023-08-12T12:26:49;3.63;;;3.40;;
81894;SDS011;71358;45.642;13.758;2023-08-12T12:29:34;4.78;;;4.35;;
81894;SDS011;71358;45.642;13.758;2023-08-12T12:32:19;6.93;;;3.97;;
81894;SDS011;71358;45.642;13.758;2023-08-12T12:35:04;5.82;;;4.30;;
81894;SDS011;71358;45.642;13.758;2023-08-12T12:37:51;4.65;;;3.90;;
81894;SDS011;71358;45.642;13.758;2023-08-12T12:40:35;4.13;;;3.75;;
81894;SDS011;71358;45.642;13.758;2023-08-12T12:43:21;5.47;;;4.00;;
81894;SDS011;71358;45.642;13.758;2023-08-12T12:46:06;5.30;;;3.72;;
81894;SDS011;71358;45.642;13.758;2023-08-12T12:48:51;4.47;;;3.95;;
81894;SDS011;71358;45.642;13.758;2023-08-12T12:51:35;4.57;;;4.18;;
81894;SDS011;71358;45.642;13.758;2023-08-12T12:54:20;4.57;;;3.33;;
81894;SDS011;71358;45.642;13.758;2023-08-12T12:57:05;3.70;;;3.40;;
81894;SDS011;71358;45.642;13.758;2023-08-12T12:59:50;7.50;;;4.55;;
81894;SDS011;71358;45.642;13.758;2023-08-12T13:02:34;4.13;;;3.63;;
81894;SDS011;71358;45.642;13.758;2023-08-12T13:05:19;5.47;;;3.33;;
81894;SDS011;71358;45.642;13.758;2023-08-12T13:08:03;4.50;;;3.70;;
81894;SDS011;71358;45.642;13.758;2023-08-12T13:10:49;4.22;;;3.85;;
81894;SDS011;71358;45.642;13.758;2023-08-12T13:13:33;6.45;;;3.55;;
81894;SDS011;71358;45.642;13.758;2023-08-12T13:16:18;4.43;;;4.03;;
81894;SDS011;71358;45.642;13.758;2023-08-12T13:19:02;4.10;;;3.80;;
81894;SDS011;71358;45.642;13.758;2023-08-12T13:21:47;3.92;;;3.60;;
81894;SDS011;71358;45.642;13.758;2023-08-12T13:24:32;4.10;;;3.70;;
81894;SDS011;71358;45.642;13.758;2023-08-12T13:27:16;3.35;;;3.08;;
81894;SDS011;71358;45.642;13.758;2023-08-12T13:30:01;4.20;;;3.90;;
81894;SDS011;71358;45.642;13.758;2023-08-12T13:32:46;3.92;;;3.63;;
81894;SDS011;71358;45.642;13.758;2023-08-12T13:35:30;3.53;;;3.22;;
81894;SDS011;71358;45.642;13.758;2023-08-12T13:38:15;4.60;;;3.67;;
81894;SDS011;71358;45.642;13.758;2023-08-12T13:41:00;4.05;;;3.70;;
81894;SDS011;71358;45.642;13.758;2023-08-12T13:43:44;3.60;;;3.38;;
81894;SDS011;71358;45.642;13.758;2023-08-12T13:46:29;3.80;;;3.50;;
81894;SDS011;71358;45.642;13.758;2023-08-12T13:49:13;4.05;;;3.65;;
81894;SDS011;71358;45.642;13.758;2023-08-12T13:51:58;4.07;;;3.78;;
81894;SDS011;71358;45.642;13.758;2023-08-12T13:54:45;3.85;;;3.55;;
81894;SDS011;71358;45.642;13.758;2023-08-12T13:57:30;3.10;;;2.90;;
81894;SDS011;71358;45.642;13.758;2023-08-12T14:00:14;3.88;;;3.58;;
81894;SDS011;71358;45.642;13.758;2023-08-12T14:03:00;3.63;;;3.42;;
81894;SDS011;71358;45.642;13.758;2023-08-12T14:05:45;3.75;;;3.35;;
81894;SDS011;71358;45.642;13.758;2023-08-12T14:08:29;3.72;;;3.42;;
81894;SDS011;71358;45.642;13.758;2023-08-12T14:11:14;3.88;;;3.50;;
81894;SDS011;71358;45.642;13.758;2023-08-12T14:13:58;4.25;;;3.78;;
81894;SDS011;71358;45.642;13.758;2023-08-12T14:16:43;3.53;;;3.30;;
81894;SDS011;71358;45.642;13.758;2023-08-12T14:19:28;4.00;;;3.70;;
81894;SDS011;71358;45.642;13.758;2023-08-12T14:22:12;3.28;;;3.03;;
81894;SDS011;71358;45.642;13.758;2023-08-12T14:24:57;3.90;;;3.60;;
81894;SDS011;71358;45.642;13.758;2023-08-12T14:27:41;3.67;;;3.28;;
81894;SDS011;71358;45.642;13.758;2023-08-12T14:30:26;3.20;;;3.00;;
81894;SDS011;71358;45.642;13.758;2023-08-12T14:33:10;4.18;;;3.47;;
81894;SDS011;71358;45.642;13.758;2023-08-12T14:35:58;3.72;;;3.50;;
81894;SDS011;71358;45.642;13.758;2023-08-12T14:38:43;3.30;;;3.10;;
81894;SDS011;71358;45.642;13.758;2023-08-12T14:41:28;3.42;;;2.85;;
81894;SDS011;71358;45.642;13.758;2023-08-12T14:44:13;3.28;;;3.05;;
81894;SDS011;71358;45.642;13.758;2023-08-12T14:46:58;3.50;;;3.30;;
81894;SDS011;71358;45.642;13.758;2023-08-12T14:49:42;3.63;;;3.33;;
81894;SDS011;71358;45.642;13.758;2023-08-12T14:52:27;3.70;;;3.45;;
81894;SDS011;71358;45.642;13.758;2023-08-12T14:55:12;2.90;;;2.70;;
81894;SDS011;71358;45.642;13.758;2023-08-12T14:57:56;3.22;;;3.03;;
81894;SDS011;71358;45.642;13.758;2023-08-12T15:00:41;3.40;;;3.10;;
81894;SDS011;71358;45.642;13.758;2023-08-12T15:03:26;2.97;;;2.80;;
81894;SDS011;71358;45.642;13.758;2023-08-12T15:06:10;3.63;;;3.33;;
81894;SDS011;71358;45.642;13.758;2023-08-12T15:08:55;3.15;;;2.95;;
81894;SDS011;71358;45.642;13.758;2023-08-12T15:11:40;3.55;;;3.25;;
81894;SDS011;71358;45.642;13.758;2023-08-12T15:14:24;2.95;;;2.72;;
81894;SDS011;71358;45.642;13.758;2023-08-12T15:17:09;4.13;;;3.33;;
81894;SDS011;71358;45.642;13.758;2023-08-12T15:19:53;3.45;;;3.15;;
81894;SDS011;71358;45.642;13.758;2023-08-12T15:22:38;3.55;;;3.25;;
81894;SDS011;71358;45.642;13.758;2023-08-12T15:25:23;3.30;;;3.00;;
81894;SDS011;71358;45.642;13.758;2023-08-12T15:28:07;3.45;;;3.25;;
81894;SDS011;71358;45.642;13.758;2023-08-12T15:30:52;3.28;;;3.08;;
81894;SDS011;71358;45.642;13.758;2023-08-12T15:33:37;3.60;;;2.97;;
81894;SDS011;71358;45.642;13.758;2023-08-12T15:36:21;3.00;;;2.80;;
81894;SDS011;71358;45.642;13.758;2023-08-12T15:39:06;3.50;;;2.83;;
81894;SDS011;71358;45.642;13.758;2023-08-12T15:42:05;3.75;;;3.40;;
81894;SDS011;71358;45.642;13.758;2023-08-12T15:44:50;3.95;;;3.10;;
81894;SDS011;71358;45.642;13.758;2023-08-12T15:47:35;3.83;;;2.75;;
81894;SDS011;71358;45.642;13.758;2023-08-12T15:50:20;2.88;;;2.67;;
81894;SDS011;71358;45.642;13.758;2023-08-12T15:53:04;2.90;;;2.70;;
81894;SDS011;71358;45.642;13.758;2023-08-12T15:55:49;2.90;;;2.70;;
81894;SDS011;71358;45.642;13.758;2023-08-12T15:58:33;3.08;;;2.88;;
81894;SDS011;71358;45.642;13.758;2023-08-12T16:01:18;5.32;;;2.90;;
81894;SDS011;71358;45.642;13.758;2023-08-12T16:04:05;3.58;;;2.88;;
81894;SDS011;71358;45.642;13.758;2023-08-12T16:06:50;3.40;;;3.08;;
81894;SDS011;71358;45.642;13.758;2023-08-12T16:09:35;4.13;;;3.53;;
81894;SDS011;71358;45.642;13.758;2023-08-12T16:12:19;3.75;;;2.97;;
81894;SDS011;71358;45.642;13.758;2023-08-12T16:15:04;4.65;;;3.00;;
81894;SDS011;71358;45.642;13.758;2023-08-12T16:17:49;5.70;;;2.97;;
81894;SDS011;71358;45.642;13.758;2023-08-12T16:20:33;5.03;;;3.45;;
81894;SDS011;71358;45.642;13.758;2023-08-12T16:23:18;3.70;;;2.88;;